createdAt,value
2022-11-16T00:00:39.408Z,9.5
2022-11-16T00:01:39.536Z,9.5
2022-11-16T00:02:39.472Z,9.5
2022-11-16T00:03:39.498Z,9.5
2022-11-16T00:04:39.537Z,9.5
2022-11-16T00:05:39.566Z,9.5
2022-11-16T00:06:39.601Z,9.5
2022-11-16T00:07:39.639Z,9.5
2022-11-16T00:08:39.662Z,9.5
2022-11-16T00:09:39.691Z,9.5
2022-11-16T00:10:39.727Z,9.5
2022-11-16T00:11:39.745Z,9.5
2022-11-16T00:12:39.779Z,9.5
2022-11-16T00:13:39.802Z,9.5
2022-11-16T00:14:39.825Z,9.5
2022-11-16T00:15:39.854Z,9.57143
2022-11-16T00:16:39.884Z,9.5
2022-11-16T00:17:39.923Z,9.57143
2022-11-16T00:18:39.954Z,9.5
2022-11-16T00:19:39.985Z,9.5
2022-11-16T00:20:40.018Z,9.5
2022-11-16T00:21:40.043Z,9.5
2022-11-16T00:22:40.062Z,9.5
2022-11-16T00:23:40.103Z,9.5
2022-11-16T00:24:40.129Z,9.5
2022-11-16T00:25:40.153Z,9.5
2022-11-16T00:26:40.192Z,9.5
2022-11-16T00:27:40.235Z,9.5
2022-11-16T00:28:40.260Z,9.5
2022-11-16T00:29:40.297Z,9.5
2022-11-16T00:30:40.334Z,9.5
2022-11-16T00:31:40.364Z,9.5
2022-11-16T00:32:40.393Z,9.5
2022-11-16T00:33:40.427Z,9.5
2022-11-16T00:34:40.452Z,9.5
2022-11-16T00:35:40.486Z,9.5
2022-11-16T00:36:40.514Z,9.5
2022-11-16T00:37:40.543Z,9.5
2022-11-16T00:38:40.579Z,9.5
2022-11-16T00:39:40.603Z,9.42857
2022-11-16T00:40:40.644Z,9.42857
2022-11-16T00:41:40.670Z,9.42857
2022-11-16T00:42:40.701Z,9.42857
2022-11-16T00:43:40.743Z,9.42857
2022-11-16T00:44:40.764Z,9.42857
2022-11-16T00:45:40.799Z,9.42857
2022-11-16T00:46:40.852Z,9.42857
2022-11-16T00:47:40.873Z,9.42857
2022-11-16T00:48:40.902Z,9.42857
2022-11-16T00:49:40.927Z,9.42857
2022-11-16T00:50:40.951Z,9.42857
2022-11-16T00:51:40.989Z,9.42857
2022-11-16T00:52:41.027Z,9.42857
2022-11-16T00:53:41.055Z,9.42857
2022-11-16T00:54:41.107Z,9.42857
2022-11-16T00:55:41.108Z,9.35714
2022-11-16T00:56:41.154Z,9.35714
2022-11-16T00:57:41.178Z,9.28571
2022-11-16T00:58:41.209Z,9.21429
2022-11-16T00:59:41.240Z,9.21429
2022-11-16T01:00:41.269Z,9.21429
2022-11-16T01:01:41.417Z,9.14286
2022-11-16T01:02:41.336Z,9.14286
2022-11-16T01:03:41.354Z,9.14286
2022-11-16T01:04:41.384Z,9.14286
2022-11-16T01:05:41.413Z,9.14286
2022-11-16T01:06:41.439Z,9.14286
2022-11-16T01:07:41.474Z,9.14286
2022-11-16T01:08:41.505Z,9.14286
2022-11-16T01:09:41.524Z,9.14286
2022-11-16T01:10:41.554Z,9.07143
2022-11-16T01:11:41.589Z,9.07143
2022-11-16T01:12:41.618Z,9.07143
2022-11-16T01:13:41.651Z,9
2022-11-16T01:14:41.672Z,9
2022-11-16T01:15:41.714Z,9
2022-11-16T01:16:41.768Z,9
2022-11-16T01:17:41.771Z,9
2022-11-16T01:18:41.790Z,8.92857
2022-11-16T01:19:41.819Z,8.92857
2022-11-16T01:20:41.853Z,8.92857
2022-11-16T01:21:41.903Z,8.92857
2022-11-16T01:22:41.913Z,8.92857
2022-11-16T01:23:41.941Z,8.85714
2022-11-16T01:24:41.969Z,8.85714
2022-11-16T01:25:41.993Z,8.85714
2022-11-16T01:26:42.034Z,8.85714
2022-11-16T01:27:42.069Z,8.78571
2022-11-16T01:28:42.104Z,8.78571
2022-11-16T01:29:42.137Z,8.78571
2022-11-16T01:30:42.164Z,8.78571
2022-11-16T01:31:42.190Z,8.78571
2022-11-16T01:32:42.215Z,8.78571
2022-11-16T01:33:42.254Z,8.78571
2022-11-16T01:34:42.284Z,8.78571
2022-11-16T01:35:42.317Z,8.78571
2022-11-16T01:36:42.355Z,8.71429
2022-11-16T01:37:42.383Z,8.71429
2022-11-16T01:38:42.402Z,8.71429
2022-11-16T01:39:42.436Z,8.71429
2022-11-16T01:40:42.473Z,8.71429
2022-11-16T01:41:42.512Z,8.64286
2022-11-16T01:42:42.542Z,8.64286
2022-11-16T01:43:42.573Z,8.64286
2022-11-16T01:44:42.604Z,8.64286
2022-11-16T01:45:42.643Z,8.64286
2022-11-16T01:46:42.665Z,8.64286
2022-11-16T01:47:42.699Z,8.57143
2022-11-16T01:48:42.762Z,8.57143
2022-11-16T01:49:42.755Z,8.57143
2022-11-16T01:50:42.795Z,8.5
2022-11-16T01:51:42.815Z,8.5
2022-11-16T01:52:42.853Z,8.5
2022-11-16T01:53:42.874Z,8.5
2022-11-16T01:54:42.906Z,8.5
2022-11-16T01:55:42.939Z,8.5
2022-11-16T01:56:42.976Z,8.5
2022-11-16T01:57:43.012Z,8.5
2022-11-16T01:58:43.032Z,8.42857
2022-11-16T01:59:43.059Z,8.42857
2022-11-16T02:00:43.164Z,8.42857
2022-11-16T02:01:43.162Z,8.42857
2022-11-16T02:02:43.152Z,8.42857
2022-11-16T02:03:43.174Z,8.42857
2022-11-16T02:04:43.205Z,8.35714
2022-11-16T02:05:43.238Z,8.35714
2022-11-16T02:06:43.270Z,8.35714
2022-11-16T02:07:43.301Z,8.35714
2022-11-16T02:08:43.324Z,8.35714
2022-11-16T02:09:43.363Z,8.35714
2022-11-16T02:10:43.397Z,8.35714
2022-11-16T02:11:43.421Z,8.35714
2022-11-16T02:12:43.453Z,8.35714
2022-11-16T02:13:43.487Z,8.35714
2022-11-16T02:14:43.517Z,8.28571
2022-11-16T02:15:43.541Z,8.28571
2022-11-16T02:16:43.574Z,8.28571
2022-11-16T02:17:43.610Z,8.28571
2022-11-16T02:18:43.636Z,8.28571
2022-11-16T02:19:43.666Z,8.28571
2022-11-16T02:20:43.703Z,8.28571
2022-11-16T02:21:43.726Z,8.28571
2022-11-16T02:22:43.755Z,8.28571
2022-11-16T02:23:43.785Z,8.28571
2022-11-16T02:24:43.832Z,8.28571
2022-11-16T02:25:43.851Z,8.21429
2022-11-16T02:26:43.882Z,8.21429
2022-11-16T02:27:43.917Z,8.21429
2022-11-16T02:28:43.949Z,8.21429
2022-11-16T02:29:43.978Z,8.21429
2022-11-16T02:30:44.011Z,8.21429
2022-11-16T02:31:44.037Z,8.21429
2022-11-16T02:32:44.066Z,8.21429
2022-11-16T02:33:44.111Z,8.21429
2022-11-16T02:34:44.136Z,8.21429
2022-11-16T02:35:44.173Z,8.21429
2022-11-16T02:36:44.205Z,8.21429
2022-11-16T02:37:44.226Z,8.21429
2022-11-16T02:38:44.261Z,8.21429
2022-11-16T02:39:44.289Z,8.21429
2022-11-16T02:40:44.319Z,8.21429
2022-11-16T02:41:44.357Z,8.21429
2022-11-16T02:42:44.386Z,8.21429
2022-11-16T02:43:44.412Z,8.21429
2022-11-16T02:44:44.444Z,8.21429
2022-11-16T02:45:44.458Z,8.21429
2022-11-16T02:46:44.485Z,8.21429
2022-11-16T02:47:44.513Z,8.21429
2022-11-16T02:48:44.547Z,8.21429
2022-11-16T02:49:44.575Z,8.21429
2022-11-16T02:50:44.613Z,8.14286
2022-11-16T02:51:44.644Z,8.14286
2022-11-16T02:52:44.672Z,8.14286
2022-11-16T02:53:44.698Z,8.14286
2022-11-16T02:54:44.732Z,8.14286
2022-11-16T02:55:44.764Z,8.14286
2022-11-16T02:56:44.796Z,8.14286
2022-11-16T02:57:44.821Z,8.14286
2022-11-16T02:58:44.844Z,8.07143
2022-11-16T02:59:44.871Z,8.07143
2022-11-16T03:00:45.014Z,8.07143
2022-11-16T03:01:44.930Z,8.07143
2022-11-16T03:02:44.961Z,8.07143
2022-11-16T03:03:44.993Z,8.07143
2022-11-16T03:04:45.022Z,8.07143
2022-11-16T03:05:45.051Z,8.07143
2022-11-16T03:06:45.073Z,8.07143
2022-11-16T03:07:45.107Z,8.07143
2022-11-16T03:08:45.137Z,8
2022-11-16T03:09:45.166Z,8
2022-11-16T03:10:45.205Z,8
2022-11-16T03:11:45.238Z,8
2022-11-16T03:12:45.265Z,8
2022-11-16T03:13:45.302Z,8
2022-11-16T03:14:45.346Z,8
2022-11-16T03:15:45.380Z,8
2022-11-16T03:16:45.417Z,8
2022-11-16T03:17:45.452Z,8
2022-11-16T03:18:45.472Z,8
2022-11-16T03:19:45.511Z,8.07143
2022-11-16T03:20:45.543Z,8.07143
2022-11-16T03:21:45.583Z,8.07143
2022-11-16T03:22:45.601Z,8.07143
2022-11-16T03:23:45.635Z,8.07143
2022-11-16T03:24:45.650Z,8.07143
2022-11-16T03:25:45.681Z,8
2022-11-16T03:26:45.706Z,8
2022-11-16T03:27:45.751Z,8
2022-11-16T03:28:45.783Z,8
2022-11-16T03:29:45.818Z,8
2022-11-16T03:30:45.852Z,8
2022-11-16T03:31:45.881Z,8
2022-11-16T03:32:45.909Z,8
2022-11-16T03:33:45.941Z,8
2022-11-16T03:34:45.971Z,8
2022-11-16T03:35:45.998Z,8
2022-11-16T03:36:46.048Z,8
2022-11-16T03:37:46.063Z,8
2022-11-16T03:38:46.088Z,8
2022-11-16T03:39:46.146Z,8
2022-11-16T03:40:46.168Z,8
2022-11-16T03:41:46.180Z,8.07143
2022-11-16T03:42:46.214Z,8
2022-11-16T03:43:46.247Z,8.07143
2022-11-16T03:44:46.277Z,8.07143
2022-11-16T03:45:46.307Z,8.07143
2022-11-16T03:46:46.335Z,8.07143
2022-11-16T03:47:46.368Z,8
2022-11-16T03:48:46.398Z,8
2022-11-16T03:49:46.428Z,8
2022-11-16T03:50:46.457Z,8.07143
2022-11-16T03:51:46.481Z,8
2022-11-16T03:52:46.513Z,8
2022-11-16T03:53:46.543Z,8
2022-11-16T03:54:46.585Z,8
2022-11-16T03:55:49.817Z,8
2022-11-16T03:56:46.653Z,8
2022-11-16T03:57:46.687Z,7.92857
2022-11-16T03:58:46.718Z,7.92857
2022-11-16T03:59:46.758Z,8
2022-11-16T04:00:46.926Z,8
2022-11-16T04:01:46.796Z,8
2022-11-16T04:02:46.830Z,8
2022-11-16T04:03:46.882Z,8
2022-11-16T04:04:46.887Z,8
2022-11-16T04:05:46.925Z,8
2022-11-16T04:06:47.090Z,8
2022-11-16T04:07:46.986Z,8
2022-11-16T04:08:47.023Z,8
2022-11-16T04:09:47.050Z,8
2022-11-16T04:10:47.084Z,8
2022-11-16T04:11:47.110Z,8
2022-11-16T04:12:47.147Z,8
2022-11-16T04:13:47.167Z,8
2022-11-16T04:14:47.204Z,8
2022-11-16T04:15:47.233Z,8.07143
2022-11-16T04:16:47.258Z,8.07143
2022-11-16T04:17:47.290Z,8.07143
2022-11-16T04:18:47.322Z,8.07143
2022-11-16T04:19:47.353Z,8.07143
2022-11-16T04:20:47.391Z,8.07143
2022-11-16T04:21:47.412Z,8.07143
2022-11-16T04:22:47.441Z,8.07143
2022-11-16T04:23:47.471Z,8.07143
2022-11-16T04:24:47.502Z,8.07143
2022-11-16T04:25:47.521Z,8.07143
2022-11-16T04:26:47.547Z,8.07143
2022-11-16T04:27:47.578Z,8.07143
2022-11-16T04:28:47.609Z,8.07143
2022-11-16T04:29:47.641Z,8.07143
2022-11-16T04:30:47.673Z,8.07143
2022-11-16T04:31:47.706Z,8.07143
2022-11-16T04:32:47.734Z,8.07143
2022-11-16T04:33:47.762Z,8.07143
2022-11-16T04:34:47.793Z,8.07143
2022-11-16T04:35:47.827Z,8.07143
2022-11-16T04:36:47.864Z,8.07143
2022-11-16T04:37:47.900Z,8.07143
2022-11-16T04:38:47.928Z,8.07143
2022-11-16T04:39:47.960Z,8.07143
2022-11-16T04:40:47.985Z,8
2022-11-16T04:41:48.018Z,8
2022-11-16T04:42:48.049Z,8
2022-11-16T04:43:48.095Z,8
2022-11-16T04:44:48.109Z,8
2022-11-16T04:45:48.146Z,8
2022-11-16T04:46:48.171Z,8
2022-11-16T04:47:48.207Z,8
2022-11-16T04:48:48.240Z,8
2022-11-16T04:49:48.275Z,8
2022-11-16T04:50:48.313Z,8
2022-11-16T04:51:48.339Z,8
2022-11-16T04:52:48.367Z,8
2022-11-16T04:53:48.401Z,8
2022-11-16T04:54:48.442Z,8
2022-11-16T04:55:48.472Z,8.07143
2022-11-16T04:56:48.499Z,8.07143
2022-11-16T04:57:48.536Z,8.07143
2022-11-16T04:58:48.567Z,8.07143
2022-11-16T04:59:48.587Z,8.07143
2022-11-16T05:00:48.616Z,8.07143
2022-11-16T05:01:48.763Z,8.07143
2022-11-16T05:02:48.673Z,8.07143
2022-11-16T05:03:48.704Z,8.07143
2022-11-16T05:04:48.738Z,8.07143
2022-11-16T05:05:48.761Z,8.07143
2022-11-16T05:06:48.821Z,8.14286
2022-11-16T05:07:48.828Z,8.14286
2022-11-16T05:08:48.867Z,8.14286
2022-11-16T05:09:48.893Z,8.14286
2022-11-16T05:10:48.938Z,8.14286
2022-11-16T05:11:48.969Z,8.14286
2022-11-16T05:12:48.994Z,8.14286
2022-11-16T05:13:49.028Z,8.14286
2022-11-16T05:14:49.058Z,8.14286
2022-11-16T05:15:49.091Z,8.14286
2022-11-16T05:16:49.121Z,8.14286
2022-11-16T05:17:49.154Z,8.14286
2022-11-16T05:18:49.187Z,8.14286
2022-11-16T05:19:49.222Z,8.14286
2022-11-16T05:20:49.262Z,8.14286
2022-11-16T05:21:49.295Z,8.14286
2022-11-16T05:22:49.335Z,8.21429
2022-11-16T05:23:49.351Z,8.21429
2022-11-16T05:24:49.369Z,8.21429
2022-11-16T05:25:49.396Z,8.21429
2022-11-16T05:26:49.436Z,8.28571
2022-11-16T05:27:49.455Z,8.21429
2022-11-16T05:28:49.490Z,8.21429
2022-11-16T05:29:49.525Z,8.21429
2022-11-16T05:30:49.551Z,8.21429
2022-11-16T05:31:49.589Z,8.21429
2022-11-16T05:32:49.621Z,8.21429
2022-11-16T05:33:49.647Z,8.21429
2022-11-16T05:34:49.672Z,8.21429
2022-11-16T05:35:49.707Z,8.28571
2022-11-16T05:36:49.743Z,8.28571
2022-11-16T05:37:49.770Z,8.28571
2022-11-16T05:38:52.695Z,8.28571
2022-11-16T05:39:49.828Z,8.28571
2022-11-16T05:40:49.865Z,8.28571
2022-11-16T05:41:49.900Z,8.28571
2022-11-16T05:42:49.935Z,8.28571
2022-11-16T05:43:49.971Z,8.35714
2022-11-16T05:44:50.006Z,8.35714
2022-11-16T05:45:50.038Z,8.35714
2022-11-16T05:46:50.074Z,8.35714
2022-11-16T05:47:50.099Z,8.35714
2022-11-16T05:48:50.131Z,8.35714
2022-11-16T05:49:50.169Z,8.35714
2022-11-16T05:50:50.187Z,8.35714
2022-11-16T05:51:50.220Z,8.35714
2022-11-16T05:52:50.250Z,8.35714
2022-11-16T05:53:50.277Z,8.35714
2022-11-16T05:54:50.311Z,8.35714
2022-11-16T05:55:50.387Z,8.35714
2022-11-16T05:56:50.369Z,8.35714
2022-11-16T05:57:50.397Z,8.35714
2022-11-16T05:58:50.435Z,8.35714
2022-11-16T05:59:50.444Z,8.35714
2022-11-16T06:00:50.482Z,8.35714
2022-11-16T06:01:50.514Z,8.42857
2022-11-16T06:02:50.618Z,8.42857
2022-11-16T06:03:50.556Z,8.35714
2022-11-16T06:04:50.586Z,8.35714
2022-11-16T06:05:50.626Z,8.35714
2022-11-16T06:06:50.765Z,8.35714
2022-11-16T06:07:50.685Z,8.35714
2022-11-16T06:08:50.714Z,8.35714
2022-11-16T06:09:50.755Z,8.35714
2022-11-16T06:10:50.777Z,8.35714
2022-11-16T06:11:50.799Z,8.42857
2022-11-16T06:12:50.836Z,8.42857
2022-11-16T06:13:50.868Z,8.42857
2022-11-16T06:14:50.907Z,8.42857
2022-11-16T06:15:54.355Z,8.42857
2022-11-16T06:16:50.977Z,8.42857
2022-11-16T06:17:51.012Z,8.42857
2022-11-16T06:18:51.047Z,8.42857
2022-11-16T06:19:51.073Z,8.42857
2022-11-16T06:20:51.112Z,8.42857
2022-11-16T06:21:51.138Z,8.42857
2022-11-16T06:22:51.180Z,8.42857
2022-11-16T06:23:51.207Z,8.42857
2022-11-16T06:24:51.233Z,8.5
2022-11-16T06:25:51.267Z,8.5
2022-11-16T06:26:51.285Z,8.5
2022-11-16T06:27:51.314Z,8.5
2022-11-16T06:28:51.340Z,8.5
2022-11-16T06:29:51.377Z,8.5
2022-11-16T06:30:51.413Z,8.5
2022-11-16T06:31:51.443Z,8.5
2022-11-16T06:32:51.484Z,8.5
2022-11-16T06:33:51.510Z,8.5
2022-11-16T06:34:51.539Z,8.5
2022-11-16T06:35:51.568Z,8.5
2022-11-16T06:36:51.598Z,8.5
2022-11-16T06:37:51.629Z,8.5
2022-11-16T06:38:51.662Z,8.5
2022-11-16T06:39:51.688Z,8.5
2022-11-16T06:40:51.719Z,8.5
2022-11-16T06:41:51.749Z,8.5
2022-11-16T06:42:51.776Z,8.5
2022-11-16T06:43:51.820Z,8.5
2022-11-16T06:44:51.848Z,8.5
2022-11-16T06:45:51.875Z,8.5
2022-11-16T06:46:51.913Z,8.57143
2022-11-16T06:47:51.940Z,8.57143
2022-11-16T06:48:51.973Z,8.57143
2022-11-16T06:49:51.998Z,8.57143
2022-11-16T06:50:52.032Z,8.57143
2022-11-16T06:51:52.057Z,8.64286
2022-11-16T06:52:52.083Z,8.64286
2022-11-16T06:53:52.108Z,8.64286
2022-11-16T06:54:52.146Z,8.64286
2022-11-16T06:55:52.175Z,8.64286
2022-11-16T06:56:52.201Z,8.64286
2022-11-16T06:57:52.241Z,8.64286
2022-11-16T06:58:53.685Z,8.64286
2022-11-16T06:59:52.297Z,8.64286
2022-11-16T07:00:52.327Z,8.64286
2022-11-16T07:01:52.395Z,8.71429
2022-11-16T07:02:52.388Z,8.71429
2022-11-16T07:03:52.427Z,8.71429
2022-11-16T07:04:52.459Z,8.71429
2022-11-16T07:05:52.494Z,8.71429
2022-11-16T07:06:52.639Z,8.71429
2022-11-16T07:07:52.555Z,8.78571
2022-11-16T07:08:52.586Z,8.78571
2022-11-16T07:09:52.618Z,8.78571
2022-11-16T07:10:52.645Z,8.78571
2022-11-16T07:11:52.679Z,8.78571
2022-11-16T07:12:52.709Z,8.78571
2022-11-16T07:13:52.742Z,8.78571
2022-11-16T07:14:52.769Z,8.78571
2022-11-16T07:15:52.796Z,8.85714
2022-11-16T07:16:57.963Z,8.85714
2022-11-16T07:17:52.856Z,8.85714
2022-11-16T07:18:52.881Z,8.85714
2022-11-16T07:19:52.910Z,8.85714
2022-11-16T07:20:52.945Z,8.85714
2022-11-16T07:21:52.975Z,8.85714
2022-11-16T07:22:53.001Z,8.92857
2022-11-16T07:23:53.030Z,8.92857
2022-11-16T07:24:53.057Z,8.92857
2022-11-16T07:25:53.087Z,8.92857
2022-11-16T07:26:53.129Z,8.92857
2022-11-16T07:27:53.159Z,8.92857
2022-11-16T07:28:53.195Z,8.92857
2022-11-16T07:29:53.219Z,8.92857
2022-11-16T07:30:53.259Z,8.92857
2022-11-16T07:31:53.288Z,8.92857
2022-11-16T07:32:53.312Z,8.92857
2022-11-16T07:33:53.349Z,8.92857
2022-11-16T07:34:53.390Z,8.92857
2022-11-16T07:35:53.415Z,8.92857
2022-11-16T07:36:53.444Z,9
2022-11-16T07:37:53.474Z,9
2022-11-16T07:38:53.492Z,8.92857
2022-11-16T07:39:53.517Z,8.92857
2022-11-16T07:40:53.550Z,9
2022-11-16T07:41:53.607Z,8.92857
2022-11-16T07:42:53.612Z,8.92857
2022-11-16T07:43:53.653Z,9
2022-11-16T07:44:53.676Z,9
2022-11-16T07:45:53.704Z,9
2022-11-16T07:46:53.761Z,9
2022-11-16T07:47:53.761Z,9
2022-11-16T07:48:53.795Z,9
2022-11-16T07:49:53.830Z,9
2022-11-16T07:50:53.847Z,9
2022-11-16T07:51:53.873Z,9
2022-11-16T07:52:53.899Z,9
2022-11-16T07:53:53.934Z,9
2022-11-16T07:54:53.975Z,9
2022-11-16T07:55:54.002Z,9
2022-11-16T07:56:54.034Z,8.92857
2022-11-16T07:57:54.066Z,8.92857
2022-11-16T07:58:54.103Z,9
2022-11-16T07:59:54.134Z,8.92857
2022-11-16T08:00:54.161Z,8.92857
2022-11-16T08:01:54.259Z,8.92857
2022-11-16T08:02:54.220Z,8.92857
2022-11-16T08:03:54.250Z,8.92857
2022-11-16T08:04:54.280Z,8.92857
2022-11-16T08:05:54.310Z,8.92857
2022-11-16T08:06:54.409Z,8.92857
2022-11-16T08:07:54.364Z,8.92857
2022-11-16T08:08:58.296Z,8.92857
2022-11-16T08:09:54.496Z,8.92857
2022-11-16T08:10:54.465Z,8.92857
2022-11-16T08:11:54.510Z,8.92857
2022-11-16T08:12:54.532Z,8.92857
2022-11-16T08:13:54.561Z,8.92857
2022-11-16T08:14:54.591Z,8.92857
2022-11-16T08:15:54.622Z,8.92857
2022-11-16T08:16:54.651Z,8.92857
2022-11-16T08:17:54.684Z,8.92857
2022-11-16T08:18:54.719Z,8.92857
2022-11-16T08:19:54.751Z,8.92857
2022-11-16T08:20:54.801Z,8.92857
2022-11-16T08:21:54.805Z,8.92857
2022-11-16T08:22:54.821Z,8.92857
2022-11-16T08:23:58.362Z,8.92857
2022-11-16T08:24:54.876Z,8.92857
2022-11-16T08:25:54.906Z,8.92857
2022-11-16T08:26:54.973Z,8.85714
2022-11-16T08:27:54.976Z,8.85714
2022-11-16T08:28:55.016Z,8.85714
2022-11-16T08:29:55.036Z,8.85714
2022-11-16T08:30:55.066Z,8.85714
2022-11-16T08:31:55.096Z,8.85714
2022-11-16T08:32:55.132Z,8.85714
2022-11-16T08:33:55.163Z,8.85714
2022-11-16T08:34:55.191Z,8.85714
2022-11-16T08:35:55.226Z,8.92857
2022-11-16T08:36:55.260Z,8.92857
2022-11-16T08:37:55.287Z,8.92857
2022-11-16T08:38:55.317Z,8.92857
2022-11-16T08:39:55.350Z,8.92857
2022-11-16T08:40:55.381Z,8.92857
2022-11-16T08:41:55.410Z,8.92857
2022-11-16T08:42:55.440Z,8.92857
2022-11-16T08:43:55.469Z,8.92857
2022-11-16T08:44:55.492Z,8.85714
2022-11-16T08:45:55.515Z,8.85714
2022-11-16T08:46:55.546Z,8.85714
2022-11-16T08:48:03.382Z,8.85714
2022-11-16T08:48:55.607Z,8.85714
2022-11-16T08:49:55.649Z,8.85714
2022-11-16T08:51:16.399Z,8.85714
2022-11-16T08:51:55.696Z,8.85714
2022-11-16T08:52:55.741Z,8.85714
2022-11-16T08:53:55.757Z,8.85714
2022-11-16T08:54:55.780Z,8.85714
2022-11-16T08:55:55.813Z,8.85714
2022-11-16T08:56:55.846Z,8.85714
2022-11-16T08:57:55.882Z,8.92857
2022-11-16T08:58:58.869Z,8.92857
2022-11-16T08:59:55.944Z,8.92857
2022-11-16T09:00:55.974Z,8.92857
2022-11-16T09:01:56.045Z,8.92857
2022-11-16T09:02:56.032Z,9
2022-11-16T09:03:56.061Z,9
2022-11-16T09:04:56.100Z,9
2022-11-16T09:05:56.126Z,9
2022-11-16T09:06:56.192Z,9
2022-11-16T09:07:56.194Z,9
2022-11-16T09:08:56.227Z,9
2022-11-16T09:09:56.263Z,9
2022-11-16T09:10:56.304Z,9
2022-11-16T09:11:56.324Z,9
2022-11-16T09:12:56.355Z,9
2022-11-16T09:13:56.377Z,9.07143
2022-11-16T09:14:56.406Z,9.07143
2022-11-16T09:15:56.439Z,9.07143
2022-11-16T09:16:56.463Z,9
2022-11-16T09:17:56.493Z,9
2022-11-16T09:18:56.521Z,9
2022-11-16T09:19:56.546Z,9
2022-11-16T09:20:56.578Z,9.07143
2022-11-16T09:21:56.609Z,9.07143
2022-11-16T09:22:56.637Z,9
2022-11-16T09:23:56.680Z,9
2022-11-16T09:24:56.705Z,9
2022-11-16T09:25:56.732Z,9
2022-11-16T09:26:56.761Z,9.07143
2022-11-16T09:27:56.793Z,9.07143
2022-11-16T09:28:56.864Z,9.07143
2022-11-16T09:29:56.848Z,9
2022-11-16T09:30:56.885Z,9
2022-11-16T09:31:56.921Z,9
2022-11-16T09:32:56.944Z,9
2022-11-16T09:33:56.985Z,9
2022-11-16T09:34:57.008Z,9
2022-11-16T09:35:57.036Z,9
2022-11-16T09:36:57.046Z,9
2022-11-16T09:37:57.094Z,9.07143
2022-11-16T09:39:28.766Z,9.07143
2022-11-16T09:39:57.161Z,9.07143
2022-11-16T09:40:57.191Z,9.07143
2022-11-16T09:41:57.230Z,9.14286
2022-11-16T09:42:57.258Z,9.14286
2022-11-16T09:43:57.293Z,9.14286
2022-11-16T09:44:57.334Z,9.14286
2022-11-16T09:45:57.370Z,9.14286
2022-11-16T09:46:57.412Z,9.14286
2022-11-16T09:47:57.442Z,9.14286
2022-11-16T09:48:57.478Z,9.14286
2022-11-16T09:50:02.975Z,9.14286
2022-11-16T09:50:57.543Z,9.14286
2022-11-16T09:51:57.578Z,9.14286
2022-11-16T09:52:57.610Z,9.14286
2022-11-16T09:53:57.630Z,9.14286
2022-11-16T09:54:57.664Z,9.21429
2022-11-16T09:55:57.696Z,9.21429
2022-11-16T09:56:57.735Z,9.21429
2022-11-16T09:57:57.762Z,9.21429
2022-11-16T09:58:57.792Z,9.21429
2022-11-16T09:59:57.829Z,9.21429
2022-11-16T10:00:57.946Z,9.21429
2022-11-16T10:01:57.886Z,9.14286
2022-11-16T10:02:57.914Z,9.14286
2022-11-16T10:03:57.945Z,9.14286
2022-11-16T10:04:58.598Z,9.14286
2022-11-16T10:05:58.015Z,9.14286
2022-11-16T10:06:58.083Z,9.21429
2022-11-16T10:07:58.081Z,9.21429
2022-11-16T10:08:58.105Z,9.21429
2022-11-16T10:09:58.143Z,9.21429
2022-11-16T10:10:58.170Z,9.28571
2022-11-16T10:11:58.206Z,9.28571
2022-11-16T10:12:58.238Z,9.28571
2022-11-16T10:14:03.846Z,9.28571
2022-11-16T10:14:58.289Z,9.28571
2022-11-16T10:15:58.322Z,9.28571
2022-11-16T10:16:58.334Z,9.28571
2022-11-16T10:17:58.378Z,9.28571
2022-11-16T10:18:58.412Z,9.28571
2022-11-16T10:19:58.445Z,9.28571
2022-11-16T10:20:58.474Z,9.28571
2022-11-16T10:21:58.496Z,9.28571
2022-11-16T10:22:58.538Z,9.28571
2022-11-16T10:23:58.572Z,9.28571
2022-11-16T10:24:58.592Z,9.28571
2022-11-16T10:25:58.629Z,9.28571
2022-11-16T10:26:58.651Z,9.28571
2022-11-16T10:27:58.687Z,9.35714
2022-11-16T10:28:58.722Z,9.35714
2022-11-16T10:29:58.749Z,9.35714
2022-11-16T10:30:58.787Z,9.35714
2022-11-16T10:31:58.815Z,9.28571
2022-11-16T10:32:58.847Z,9.28571
2022-11-16T10:33:58.863Z,9.28571
2022-11-16T10:34:58.896Z,9.28571
2022-11-16T10:35:58.920Z,9.28571
2022-11-16T10:36:58.961Z,9.28571
2022-11-16T10:37:58.989Z,9.21429
2022-11-16T10:38:59.021Z,9.28571
2022-11-16T10:39:59.053Z,9.28571
2022-11-16T10:40:59.089Z,9.28571
2022-11-16T10:42:03.257Z,9.28571
2022-11-16T10:42:59.147Z,9.28571
2022-11-16T10:43:59.174Z,9.28571
2022-11-16T10:44:59.204Z,9.28571
2022-11-16T10:45:59.241Z,9.21429
2022-11-16T10:46:59.269Z,9.21429
2022-11-16T10:47:59.308Z,9.14286
2022-11-16T10:48:59.340Z,9.14286
2022-11-16T10:49:59.368Z,9.14286
2022-11-16T10:50:59.415Z,9.14286
2022-11-16T10:51:59.438Z,9.14286
2022-11-16T10:52:59.466Z,9.14286
2022-11-16T10:53:59.501Z,9.14286
2022-11-16T10:54:59.534Z,9.14286
2022-11-16T10:55:59.565Z,9.14286
2022-11-16T10:56:59.593Z,9.14286
2022-11-16T10:57:59.629Z,9.14286
2022-11-16T10:58:59.724Z,9.07143
2022-11-16T10:59:59.691Z,9.07143
2022-11-16T11:00:59.793Z,9.07143
2022-11-16T11:01:59.764Z,9.07143
2022-11-16T11:02:59.801Z,9.07143
2022-11-16T11:03:59.837Z,9.07143
2022-11-16T11:04:59.870Z,9.07143
2022-11-16T11:05:59.898Z,9
2022-11-16T11:06:59.995Z,9
2022-11-16T11:07:59.983Z,9
2022-11-16T11:09:00.006Z,9
2022-11-16T11:10:00.038Z,9
2022-11-16T11:11:00.077Z,9
2022-11-16T11:12:00.091Z,9
2022-11-16T11:13:00.119Z,9
2022-11-16T11:14:00.156Z,9
2022-11-16T11:15:00.189Z,9
2022-11-16T11:16:00.221Z,9
2022-11-16T11:17:00.261Z,9
2022-11-16T11:18:00.296Z,9
2022-11-16T11:19:00.326Z,9
2022-11-16T11:20:00.367Z,9
2022-11-16T11:21:00.396Z,9
2022-11-16T11:22:00.430Z,9
2022-11-16T11:23:00.460Z,9
2022-11-16T11:24:29.348Z,9.07143
2022-11-16T11:25:00.515Z,9.07143
2022-11-16T11:26:00.556Z,9.07143
2022-11-16T11:27:00.585Z,9.07143
2022-11-16T11:28:00.618Z,9.07143
2022-11-16T11:29:00.652Z,9.07143
2022-11-16T11:30:00.678Z,9.07143
2022-11-16T11:31:00.717Z,9.07143
2022-11-16T11:32:00.732Z,9.07143
2022-11-16T11:33:00.775Z,9.07143
2022-11-16T11:34:00.800Z,9.07143
2022-11-16T11:35:00.823Z,9.07143
2022-11-16T11:36:00.862Z,9
2022-11-16T11:37:00.894Z,9
2022-11-16T11:38:06.299Z,9
2022-11-16T11:39:01.004Z,9
2022-11-16T11:40:00.967Z,9
2022-11-16T11:41:01.010Z,9
2022-11-16T11:42:01.044Z,9
2022-11-16T11:43:01.088Z,9
2022-11-16T11:44:01.112Z,9
2022-11-16T11:45:01.146Z,9
2022-11-16T11:46:01.188Z,9
2022-11-16T11:47:55.529Z,9
2022-11-16T11:48:01.239Z,9.07143
2022-11-16T11:49:01.257Z,9.07143
2022-11-16T11:50:01.294Z,9.07143
2022-11-16T11:51:01.330Z,9.07143
2022-11-16T11:52:01.359Z,9.07143
2022-11-16T11:53:01.391Z,9.07143
2022-11-16T11:54:01.419Z,9.07143
2022-11-16T11:55:01.451Z,9.07143
2022-11-16T11:56:01.467Z,9.07143
2022-11-16T11:57:01.492Z,9.07143
2022-11-16T11:58:01.531Z,9
2022-11-16T11:59:01.556Z,9.07143
2022-11-16T12:00:01.583Z,9.07143
2022-11-16T12:01:01.623Z,9.07143
2022-11-16T12:02:01.630Z,9.07143
2022-11-16T12:03:01.749Z,9.07143
2022-11-16T12:04:01.688Z,9.07143
2022-11-16T12:05:01.726Z,9.07143
2022-11-16T12:06:01.771Z,9.07143
2022-11-16T12:07:01.824Z,9.07143
2022-11-16T12:08:01.834Z,9
2022-11-16T12:09:01.849Z,9
2022-11-16T12:10:01.883Z,9
2022-11-16T12:11:01.921Z,9
2022-11-16T12:12:01.944Z,9
2022-11-16T12:13:01.976Z,9
2022-11-16T12:14:02.005Z,9
2022-11-16T12:15:02.040Z,9
2022-11-16T12:16:02.060Z,8.92857
2022-11-16T12:17:02.088Z,8.92857
2022-11-16T12:18:02.127Z,8.92857
2022-11-16T12:19:02.161Z,8.92857
2022-11-16T12:20:02.187Z,8.92857
2022-11-16T12:21:02.216Z,8.92857
2022-11-16T12:22:02.258Z,8.92857
2022-11-16T12:23:04.222Z,8.92857
2022-11-16T12:24:02.291Z,8.92857
2022-11-16T12:25:02.327Z,8.92857
2022-11-16T12:26:02.345Z,8.92857
2022-11-16T12:27:02.369Z,8.92857
2022-11-16T12:28:02.404Z,8.92857
2022-11-16T12:29:02.435Z,8.92857
2022-11-16T12:30:02.468Z,8.92857
2022-11-16T12:31:02.513Z,8.92857
2022-11-16T12:32:02.533Z,8.92857
2022-11-16T12:33:02.585Z,9
2022-11-16T12:34:02.595Z,9
2022-11-16T12:35:02.626Z,9
2022-11-16T12:36:02.667Z,9
2022-11-16T12:37:02.694Z,9
2022-11-16T12:38:02.761Z,9
2022-11-16T12:39:02.761Z,9.07143
2022-11-16T12:40:02.787Z,9.07143
2022-11-16T12:41:02.828Z,9.07143
2022-11-16T12:42:02.860Z,9.07143
2022-11-16T12:43:02.906Z,9
2022-11-16T12:44:02.941Z,9